Time;durP1;ratioP1;P1;durP2;ratioP2;P2;SDS_P1;SDS_P2;PMS_P1;PMS_P2;Temp;Humidity;BMP_temperature;BMP_pressure;BME280_temperature;BME280_humidity;BME280_pressure;Samples;Min_cycle;Max_cycle;Signal;HPM_P1;HPM_P2
2023/12/15 00:01:27;;;;;;;7.37;3.30;;;;;;;6.65;100.00;97159.94;4998110;28;20219;-69
2023/12/15 00:03:54;;;;;;;7.90;3.70;;;;;;;6.61;100.00;97170.81;4998477;28;20217;-69
2023/12/15 00:06:20;;;;;;;5.00;2.60;;;;;;;6.54;100.00;97174.09;4997995;28;20694;-69
2023/12/15 00:08:47;;;;;;;6.17;2.87;;;;;;;6.52;100.00;97176.84;4998249;28;20202;-69
2023/12/15 00:11:13;;;;;;;6.67;2.53;;;;;;;6.36;100.00;97188.72;4997279;28;20245;-69
2023/12/15 00:13:40;;;;;;;4.83;2.47;;;;;;;6.56;100.00;97185.28;4998688;28;20249;-69
2023/12/15 00:16:07;;;;;;;5.03;2.60;;;;;;;6.55;100.00;97187.03;4998504;28;20206;-69
2023/12/15 00:18:35;;;;;;;4.17;2.33;;;;;;;6.46;100.00;97187.81;5003312;28;20764;-69
2023/12/15 00:21:02;;;;;;;2.77;1.73;;;;;;;6.21;100.00;97183.00;5000684;28;20235;-69
2023/12/15 00:23:28;;;;;;;6.53;2.27;;;;;;;6.39;100.00;97184.06;4998174;28;20210;-69
2023/12/15 00:25:55;;;;;;;3.23;2.07;;;;;;;6.43;100.00;97188.09;4998477;28;20222;-69
2023/12/15 00:28:21;;;;;;;4.53;1.90;;;;;;;6.39;100.00;97191.91;4997522;28;20214;-69
2023/12/15 00:30:48;;;;;;;4.13;2.23;;;;;;;6.44;100.00;97200.22;4997401;28;20575;-69
2023/12/15 00:33:14;;;;;;;3.17;1.87;;;;;;;6.08;100.00;97198.06;4997772;28;20202;-69
2023/12/15 00:35:42;;;;;;;4.47;2.63;;;;;;;6.23;100.00;97207.22;4999080;28;20209;-68
2023/12/15 00:38:08;;;;;;;5.70;2.70;;;;;;;6.02;100.00;97210.81;4998218;28;20853;-68
2023/12/15 00:40:35;;;;;;;5.73;3.17;;;;;;;5.83;100.00;97212.41;4997364;28;20218;-69
2023/12/15 00:43:01;;;;;;;3.97;2.27;;;;;;;5.90;100.00;97218.81;4998568;28;20207;-68
2023/12/15 00:45:28;;;;;;;9.87;3.40;;;;;;;5.88;100.00;97216.34;4998085;28;20209;-68
2023/12/15 00:47:54;;;;;;;6.67;3.37;;;;;;;6.11;100.00;97217.91;4998039;28;20213;-69
2023/12/15 00:50:21;;;;;;;6.57;3.10;;;;;;;6.06;100.00;97220.88;4997142;28;20230;-69
2023/12/15 00:52:49;;;;;;;7.20;3.47;;;;;;;6.34;100.00;97224.66;5004459;28;20202;-69
2023/12/15 00:55:15;;;;;;;8.23;3.47;;;;;;;6.13;100.00;97227.25;5002212;28;20207;-69
2023/12/15 00:57:42;;;;;;;6.30;2.77;;;;;;;6.17;100.00;97233.94;4997877;28;20215;-69
2023/12/15 01:00:10;;;;;;;7.30;4.10;;;;;;;6.09;100.00;97225.84;4997653;28;20225;-69
2023/12/15 01:02:36;;;;;;;9.03;3.33;;;;;;;6.00;100.00;97232.81;4997631;28;20206;-69
2023/12/15 01:05:03;;;;;;;8.60;4.33;;;;;;;6.11;100.00;97239.66;4997738;28;20206;-69
2023/12/15 01:07:31;;;;;;;10.03;3.93;;;;;;;6.14;100.00;97244.63;4997739;28;20198;-69
2023/12/15 01:09:58;;;;;;;6.97;3.17;;;;;;;6.19;100.00;97252.13;4997572;28;20264;-69
2023/12/15 01:12:25;;;;;;;6.90;3.80;;;;;;;6.04;100.00;97256.78;4997161;28;20225;-69
2023/12/15 01:14:51;;;;;;;5.37;2.83;;;;;;;5.88;100.00;97259.94;4998075;28;20209;-68
2023/12/15 01:17:18;;;;;;;8.17;3.97;;;;;;;6.04;100.00;97266.44;4996902;28;20207;-69
2023/12/15 01:19:44;;;;;;;7.03;3.20;;;;;;;6.06;100.00;97267.16;4997144;28;20580;-69
2023/12/15 01:22:11;;;;;;;8.17;3.77;;;;;;;5.94;100.00;97264.69;4997533;28;20222;-69
2023/12/15 01:24:37;;;;;;;7.30;3.73;;;;;;;5.78;100.00;97274.72;4997360;28;20214;-69
2023/12/15 01:27:05;;;;;;;8.47;3.83;;;;;;;5.90;100.00;97278.97;5005162;28;20214;-69
2023/12/15 01:29:32;;;;;;;8.97;4.17;;;;;;;5.72;100.00;97283.03;4996897;28;20206;-69
2023/12/15 01:31:58;;;;;;;6.57;3.00;;;;;;;5.79;100.00;97286.84;4997431;28;20606;-69
2023/12/15 01:34:25;;;;;;;8.10;3.63;;;;;;;5.70;100.00;97300.63;4997241;28;20217;-69
2023/12/15 01:36:51;;;;;;;6.40;3.30;;;;;;;5.72;100.00;97309.19;4997743;28;20206;-69
2023/12/15 01:39:18;;;;;;;11.23;3.97;;;;;;;5.60;100.00;97317.97;4996949;28;20209;-69
2023/12/15 01:41:44;;;;;;;6.80;3.40;;;;;;;5.85;100.00;97315.13;4997067;28;20218;-69
2023/12/15 01:44:12;;;;;;;12.50;4.37;;;;;;;5.78;100.00;97322.63;4999668;28;20218;-69
2023/12/15 01:46:38;;;;;;;8.57;4.20;;;;;;;5.55;100.00;97335.84;5001950;28;20541;-69
2023/12/15 01:49:05;;;;;;;7.03;3.77;;;;;;;5.59;100.00;97329.41;5000670;28;20207;-69
2023/12/15 01:51:31;;;;;;;8.63;4.03;;;;;;;5.71;100.00;97334.50;5001046;28;20245;-69
2023/12/15 01:53:57;;;;;;;10.67;3.67;;;;;;;5.61;100.00;97346.66;5000953;28;20225;-69
2023/12/15 01:56:24;;;;;;;8.63;4.40;;;;;;;5.57;100.00;97349.59;5001231;28;20206;-69
2023/12/15 01:58:50;;;;;;;10.90;4.10;;;;;;;5.71;100.00;97354.59;5001158;28;20731;-69
2023/12/15 02:01:18;;;;;;;8.17;3.60;;;;;;;5.67;100.00;97368.84;5007194;28;20230;-69
2023/12/15 02:03:44;;;;;;;9.17;3.93;;;;;;;5.61;100.00;97364.09;5000831;28;20210;-69
2023/12/15 02:06:11;;;;;;;8.87;3.83;;;;;;;5.63;100.00;97357.81;5000655;28;20580;-69
2023/12/15 02:08:37;;;;;;;7.73;4.07;;;;;;;5.80;100.00;97359.13;5000814;28;20222;-69
2023/12/15 02:11:04;;;;;;;11.97;4.30;;;;;;;5.89;100.00;97363.63;5000157;28;20230;-69
2023/12/15 02:13:31;;;;;;;8.57;3.67;;;;;;;5.83;100.00;97362.34;5000085;28;20661;-69
2023/12/15 02:15:57;;;;;;;11.03;4.70;;;;;;;5.92;100.00;97361.63;5000417;28;20210;-69
2023/12/15 02:18:25;;;;;;;10.37;4.50;;;;;;;5.96;100.00;97367.41;5000493;28;20692;-69
2023/12/15 02:20:52;;;;;;;6.53;3.23;;;;;;;5.83;100.00;97379.81;5000075;28;20230;-69
2023/12/15 02:23:19;;;;;;;7.97;3.73;;;;;;;6.02;100.00;97382.63;4999911;28;20208;-69
2023/12/15 02:25:46;;;;;;;8.50;3.37;;;;;;;5.97;100.00;97385.63;5007290;28;20202;-69
2023/12/15 02:28:12;;;;;;;7.93;3.73;;;;;;;5.90;100.00;97396.69;5002459;28;20206;-69
2023/12/15 02:30:39;;;;;;;7.07;3.20;;;;;;;5.97;100.00;97398.72;4999402;28;20227;-69
2023/12/15 02:33:05;;;;;;;8.33;4.17;;;;;;;5.99;100.00;97396.78;5000276;28;20740;-69
2023/12/15 02:35:32;;;;;;;12.07;4.60;;;;;;;5.95;100.00;97405.00;5007160;28;20206;-69
2023/12/15 02:38:00;;;;;;;9.43;4.27;;;;;;;5.95;100.00;97399.78;5000878;28;20211;-69
2023/12/15 02:40:28;;;;;;;6.10;3.30;;;;;;;5.98;100.00;97408.19;4999455;28;20318;-69
2023/12/15 02:42:54;;;;;;;10.47;4.23;;;;;;;5.72;100.00;97413.78;5000556;28;20221;-69
2023/12/15 02:45:21;;;;;;;7.90;3.67;;;;;;;5.54;100.00;97421.25;4999264;28;20206;-69
2023/12/15 02:47:47;;;;;;;7.00;3.77;;;;;;;5.67;100.00;97415.94;5000395;28;20199;-69
2023/12/15 02:50:14;;;;;;;10.20;4.30;;;;;;;5.77;100.00;97422.16;4999785;28;20218;-69
2023/12/15 02:52:40;;;;;;;10.20;4.47;;;;;;;5.68;100.00;97425.44;4999607;28;21132;-69
2023/12/15 02:55:07;;;;;;;11.23;5.10;;;;;;;5.65;100.00;97423.03;4999928;28;20213;-69
2023/12/15 02:57:36;;;;;;;11.20;5.47;;;;;;;5.64;100.00;97432.69;4999549;28;20241;-69
2023/12/15 03:00:03;;;;;;;12.50;4.90;;;;;;;5.40;100.00;97432.88;4999998;28;20715;-69
2023/12/15 03:02:29;;;;;;;10.13;3.87;;;;;;;5.65;100.00;97447.44;5006691;28;20218;-69
2023/12/15 03:04:56;;;;;;;12.27;4.80;;;;;;;5.56;100.00;97444.66;4999561;28;20211;-69
2023/12/15 03:07:22;;;;;;;14.13;4.60;;;;;;;5.72;100.00;97450.41;4999679;28;20209;-69
2023/12/15 03:09:49;;;;;;;11.90;4.63;;;;;;;5.29;100.00;97446.78;5006897;28;20209;-69
2023/12/15 03:12:15;;;;;;;10.77;3.90;;;;;;;5.53;100.00;97450.16;4999147;28;20230;-69
2023/12/15 03:14:43;;;;;;;9.13;5.10;;;;;;;5.77;100.00;97453.53;4999063;28;20199;-69
2023/12/15 03:17:10;;;;;;;13.23;4.83;;;;;;;5.62;100.00;97455.50;4999588;28;20202;-69
2023/12/15 03:19:38;;;;;;;10.53;4.60;;;;;;;5.57;100.00;97464.63;4998747;28;20657;-69
2023/12/15 03:22:05;;;;;;;7.73;4.23;;;;;;;5.50;100.00;97466.06;5000202;28;20241;-69
2023/12/15 03:24:31;;;;;;;7.77;3.63;;;;;;;5.53;100.00;97471.88;4999142;28;20203;-69
2023/12/15 03:26:58;;;;;;;10.73;4.50;;;;;;;5.47;100.00;97471.50;4999514;28;20210;-69
2023/12/15 03:29:24;;;;;;;10.13;3.93;;;;;;;5.43;100.00;97477.94;5002369;28;20572;-69
2023/12/15 03:31:52;;;;;;;10.37;4.60;;;;;;;5.51;100.00;97480.78;4999138;28;20226;-69
2023/12/15 03:34:19;;;;;;;11.53;4.37;;;;;;;5.47;100.00;97482.81;4997417;28;20214;-69
2023/12/15 03:36:45;;;;;;;13.87;4.87;;;;;;;5.65;100.00;97488.41;4998914;28;20210;-69
2023/12/15 03:39:11;;;;;;;12.27;4.53;;;;;;;5.52;100.00;97485.06;4999901;28;20683;-69
2023/12/15 03:41:38;;;;;;;13.77;5.40;;;;;;;5.54;100.00;97493.66;5010274;28;20221;-69
2023/12/15 03:44:04;;;;;;;13.37;5.30;;;;;;;5.34;100.00;97496.91;5005386;28;20216;-69
2023/12/15 03:46:31;;;;;;;11.03;5.17;;;;;;;5.62;100.00;97506.97;5003678;28;20202;-69
2023/12/15 03:48:59;;;;;;;10.90;4.00;;;;;;;5.73;100.00;97509.59;5001919;28;20210;-69
2023/12/15 03:51:25;;;;;;;10.20;4.20;;;;;;;5.29;100.00;97506.88;5000002;28;20588;-69
2023/12/15 03:53:52;;;;;;;12.67;4.17;;;;;;;5.29;100.00;97512.09;5002012;28;20209;-69
2023/12/15 03:56:24;;;;;;;10.23;4.73;;;;;;;5.52;100.00;97511.22;5006409;28;20220;-68
2023/12/15 03:58:51;;;;;;;9.93;3.97;;;;;;;5.62;100.00;97506.97;5000121;28;20202;-68
2023/12/15 04:01:17;;;;;;;9.77;3.60;;;;;;;5.59;100.00;97509.81;4998837;28;20226;-69
2023/12/15 04:03:44;;;;;;;9.77;3.97;;;;;;;5.63;100.00;97511.25;4998319;28;20206;-69
2023/12/15 04:06:12;;;;;;;8.77;4.20;;;;;;;5.60;100.00;97514.94;4997716;28;20827;-69
2023/12/15 04:08:40;;;;;;;10.90;4.07;;;;;;;5.68;100.00;97519.59;4999254;28;20206;-69
2023/12/15 04:11:07;;;;;;;8.67;3.87;;;;;;;5.44;100.00;97524.03;4997746;28;20246;-69
2023/12/15 04:13:33;;;;;;;10.97;4.17;;;;;;;5.65;100.00;97525.03;4997872;28;20221;-69
2023/12/15 04:16:00;;;;;;;7.87;3.67;;;;;;;5.51;100.00;97526.06;4998361;28;20207;-69
2023/12/15 04:18:27;;;;;;;9.23;3.70;;;;;;;5.58;100.00;97526.44;4998230;28;20210;-69
2023/12/15 04:20:53;;;;;;;8.83;3.87;;;;;;;5.52;100.00;97530.38;4997773;28;20230;-69
2023/12/15 04:23:21;;;;;;;9.87;4.23;;;;;;;5.67;100.00;97528.38;4998399;28;20319;-69
2023/12/15 04:25:48;;;;;;;15.43;4.37;;;;;;;5.47;100.00;97526.41;4998251;28;20207;-69
2023/12/15 04:28:14;;;;;;;11.57;4.97;;;;;;;5.62;100.00;97533.09;4997988;28;20206;-69
2023/12/15 04:30:41;;;;;;;10.93;4.87;;;;;;;5.56;100.00;97536.16;4998563;28;20743;-69
2023/12/15 04:33:07;;;;;;;11.00;4.27;;;;;;;5.30;100.00;97552.97;4997844;28;20230;-69
2023/12/15 04:35:34;;;;;;;9.40;4.17;;;;;;;5.51;100.00;97561.81;5004852;28;21233;-69
2023/12/15 04:38:00;;;;;;;9.03;3.47;;;;;;;5.45;100.00;97567.53;4997734;28;20206;-69
2023/12/15 04:40:28;;;;;;;10.87;4.10;;;;;;;5.44;100.00;97568.47;5006069;28;20398;-69
2023/12/15 04:42:54;;;;;;;10.20;4.07;;;;;;;5.30;100.00;97579.09;5002664;28;20702;-69
2023/12/15 04:45:21;;;;;;;10.33;4.43;;;;;;;5.25;100.00;97577.78;4996864;28;20237;-69
2023/12/15 04:47:47;;;;;;;10.00;4.50;;;;;;;5.46;100.00;97575.25;4997672;28;20205;-69
2023/12/15 04:50:14;;;;;;;10.70;3.73;;;;;;;5.51;100.00;97582.75;4996917;28;20217;-69
2023/12/15 04:52:40;;;;;;;10.27;4.23;;;;;;;5.44;100.00;97602.44;5004789;28;20228;-69
2023/12/15 04:55:07;;;;;;;12.70;4.47;;;;;;;5.55;100.00;97594.66;4997169;28;20561;-69
2023/12/15 04:57:35;;;;;;;7.73;4.00;;;;;;;5.51;100.00;97598.44;4997498;28;20205;-68
2023/12/15 05:00:04;;;;;;;9.27;3.97;;;;;;;5.15;100.00;97611.56;4997529;28;20631;-68
2023/12/15 05:02:30;;;;;;;8.07;3.47;;;;;;;4.94;100.00;97604.47;4996932;28;20293;-68
2023/12/15 05:04:56;;;;;;;10.27;4.20;;;;;;;5.14;100.00;97609.94;4997889;28;21244;-68
2023/12/15 05:07:23;;;;;;;9.87;3.67;;;;;;;4.97;100.00;97612.06;4997933;28;20206;-68
2023/12/15 05:09:49;;;;;;;15.67;3.87;;;;;;;4.95;100.00;97613.94;4997012;28;20214;-68
2023/12/15 05:12:16;;;;;;;8.60;3.50;;;;;;;5.08;100.00;97615.59;4997635;28;21168;-69
2023/12/15 05:14:44;;;;;;;10.17;3.67;;;;;;;5.17;100.00;97617.53;4997912;28;20742;-68
2023/12/15 05:17:11;;;;;;;12.67;4.53;;;;;;;5.26;100.00;97624.72;4997936;28;20211;-68
2023/12/15 05:19:37;;;;;;;8.53;4.33;;;;;;;5.32;100.00;97623.41;5000350;28;20212;-68
2023/12/15 05:22:04;;;;;;;7.67;3.60;;;;;;;5.44;100.00;97616.34;5002463;28;20225;-68
2023/12/15 05:24:32;;;;;;;9.50;5.10;;;;;;;5.41;100.00;97622.75;5001523;28;20210;-68
2023/12/15 05:26:58;;;;;;;7.73;3.70;;;;;;;5.45;100.00;97630.28;5001402;28;20972;-69
2023/12/15 05:29:25;;;;;;;10.23;3.40;;;;;;;5.52;100.00;97623.63;5001704;28;20206;-69
2023/12/15 05:31:53;;;;;;;12.60;5.63;;;;;;;5.48;100.00;97625.63;5007826;28;20672;-69
2023/12/15 05:34:19;;;;;;;11.47;4.73;;;;;;;5.39;100.00;97635.94;5001332;28;20206;-69
2023/12/15 05:36:46;;;;;;;14.10;5.17;;;;;;;5.43;100.00;97636.56;5001744;28;20211;-69
2023/12/15 05:39:14;;;;;;;12.00;5.10;;;;;;;5.49;100.00;97642.16;5000703;28;20213;-69
2023/12/15 05:41:42;;;;;;;8.80;4.47;;;;;;;5.54;100.00;97642.66;5001198;28;21216;-69
2023/12/15 05:44:08;;;;;;;8.40;3.33;;;;;;;5.46;100.00;97655.47;5000843;28;20214;-69
2023/12/15 05:46:35;;;;;;;12.33;4.30;;;;;;;5.55;100.00;97649.56;5001874;28;20203;-69
2023/12/15 05:49:03;;;;;;;8.47;3.57;;;;;;;5.38;100.00;97655.16;5000789;28;20229;-69
2023/12/15 05:51:30;;;;;;;9.33;3.90;;;;;;;5.33;100.00;97664.28;5001504;28;20238;-69
2023/12/15 05:53:56;;;;;;;9.77;4.07;;;;;;;5.41;100.00;97660.19;5000657;28;20240;-69
2023/12/15 05:56:23;;;;;;;9.73;3.40;;;;;;;5.39;100.00;97675.16;5000794;28;20202;-69
2023/12/15 05:58:49;;;;;;;8.00;4.03;;;;;;;5.35;100.00;97676.31;5000964;28;20221;-69
2023/12/15 06:01:16;;;;;;;7.77;3.73;;;;;;;5.50;100.00;97690.91;5000144;28;20230;-71
2023/12/15 06:03:42;;;;;;;11.80;4.33;;;;;;;5.22;100.00;97696.44;5004281;28;20993;-69
2023/12/15 06:06:12;;;;;;;11.23;4.03;;;;;;;5.48;100.00;97711.06;5004840;28;20202;-69
2023/12/15 06:08:39;;;;;;;11.37;4.27;;;;;;;5.32;100.00;97713.13;5001754;28;20205;-69
2023/12/15 06:11:06;;;;;;;9.97;4.20;;;;;;;5.04;100.00;97717.78;4999067;28;20248;-69
2023/12/15 06:13:32;;;;;;;9.30;4.87;;;;;;;5.34;100.00;97720.84;4999532;28;20755;-69
2023/12/15 06:15:59;;;;;;;11.50;4.40;;;;;;;5.19;100.00;97717.53;4999635;28;20217;-69
2023/12/15 06:18:25;;;;;;;8.73;4.27;;;;;;;5.36;100.00;97726.78;4999874;28;20213;-69
2023/12/15 06:20:52;;;;;;;7.87;4.20;;;;;;;5.42;100.00;97724.56;4998435;28;20696;-69
2023/12/15 06:23:21;;;;;;;15.67;5.13;;;;;;;5.63;100.00;97718.66;4999149;28;20203;-69
2023/12/15 06:25:47;;;;;;;12.07;4.43;;;;;;;5.62;100.00;97724.00;4999393;28;20206;-69
2023/12/15 06:28:14;;;;;;;29.93;8.97;;;;;;;5.50;100.00;97737.97;4998976;28;20214;-69
2023/12/15 06:30:40;;;;;;;13.93;4.83;;;;;;;5.54;100.00;97734.16;4998695;28;20232;-69
2023/12/15 06:33:07;;;;;;;10.73;4.43;;;;;;;5.48;100.00;97740.66;4998695;28;20237;-70
2023/12/15 06:35:34;;;;;;;12.60;4.20;;;;;;;5.47;100.00;97751.22;4999153;28;20210;-69
2023/12/15 06:38:00;;;;;;;11.00;4.50;;;;;;;5.55;100.00;97759.38;5004244;28;20209;-69
2023/12/15 06:40:28;;;;;;;52.77;13.77;;;;;;;5.75;100.00;97756.16;5001141;28;20873;-69
2023/12/15 06:42:55;;;;;;;48.97;15.20;;;;;;;5.67;100.00;97761.09;4998733;28;21048;-69
2023/12/15 06:45:22;;;;;;;30.33;11.73;;;;;;;5.50;100.00;97769.31;4998715;28;20210;-69
2023/12/15 06:47:48;;;;;;;17.10;6.13;;;;;;;5.62;100.00;97773.66;4999089;28;20202;-69
2023/12/15 06:50:14;;;;;;;9.13;4.20;;;;;;;5.58;100.00;97782.69;4998334;28;20245;-69
2023/12/15 06:52:41;;;;;;;12.57;5.17;;;;;;;5.67;100.00;97787.25;4998511;28;20233;-69
2023/12/15 06:55:08;;;;;;;9.83;3.97;;;;;;;5.74;100.00;97789.31;4998490;28;20211;-69
2023/12/15 06:57:36;;;;;;;12.53;4.03;;;;;;;5.57;100.00;97788.84;4998428;28;20293;-69
2023/12/15 07:00:03;;;;;;;12.60;4.40;;;;;;;5.65;100.00;97795.22;4997234;28;20699;-69
2023/12/15 07:02:30;;;;;;;11.20;5.07;;;;;;;5.62;100.00;97798.03;4998190;28;20222;-69
2023/12/15 07:04:56;;;;;;;11.77;4.47;;;;;;;5.56;100.00;97797.63;5005864;28;20926;-69
2023/12/15 07:07:23;;;;;;;11.07;4.00;;;;;;;5.71;100.00;97801.78;4997140;28;20210;-69
2023/12/15 07:09:49;;;;;;;12.40;4.23;;;;;;;5.65;100.00;97807.44;4996250;28;20211;-70
2023/12/15 07:12:16;;;;;;;9.47;4.23;;;;;;;5.30;100.00;97821.34;4968504;28;1048755;-70
2023/12/15 07:14:44;;;;;;;13.20;4.87;;;;;;;5.53;100.00;97821.38;5000775;28;20217;-69
2023/12/15 07:17:10;;;;;;;9.70;3.80;;;;;;;5.38;100.00;97832.91;4997192;28;20214;-70
2023/12/15 07:19:37;;;;;;;14.27;4.87;;;;;;;5.48;100.00;97832.16;4997604;28;20213;-69
2023/12/15 07:22:04;;;;;;;11.63;4.17;;;;;;;5.38;100.00;97840.75;4997580;28;21079;-70
2023/12/15 07:24:30;;;;;;;9.80;4.60;;;;;;;5.56;100.00;97829.00;4998603;28;20207;-70
2023/12/15 07:26:57;;;;;;;11.70;5.27;;;;;;;5.75;100.00;97837.22;5003764;28;20669;-70
2023/12/15 07:29:24;;;;;;;7.83;3.93;;;;;;;5.69;100.00;97835.03;4997335;28;20214;-70
2023/12/15 07:31:52;;;;;;;14.40;6.23;;;;;;;5.84;100.00;97842.69;4997060;28;20230;-70
2023/12/15 07:34:19;;;;;;;20.17;6.93;;;;;;;5.65;100.00;97844.03;4996532;28;20849;-70
2023/12/15 07:36:45;;;;;;;20.97;6.27;;;;;;;5.80;100.00;97845.63;4998292;28;20675;-70
2023/12/15 07:39:12;;;;;;;32.73;10.33;;;;;;;5.60;100.00;97852.22;4997178;28;20213;-70
2023/12/15 07:41:39;;;;;;;23.03;9.20;;;;;;;5.87;100.00;97860.78;4997164;28;20230;-70
2023/12/15 07:44:06;;;;;;;14.00;6.03;;;;;;;5.83;100.00;97861.94;4997974;28;20265;-70
2023/12/15 07:46:33;;;;;;;22.07;6.67;;;;;;;5.81;100.00;97863.00;5001870;28;20771;-70
2023/12/15 07:49:01;;;;;;;30.93;10.70;;;;;;;5.96;100.00;97873.19;4998816;28;20211;-70
2023/12/15 07:51:27;;;;;;;25.60;9.73;;;;;;;5.88;100.00;97879.91;4997377;28;20227;-70
2023/12/15 07:53:54;;;;;;;11.23;4.63;;;;;;;5.80;100.00;97877.00;4997530;28;20230;-70
2023/12/15 07:56:21;;;;;;;11.47;4.90;;;;;;;6.02;100.00;97885.00;4997315;28;20352;-70
2023/12/15 07:58:49;;;;;;;11.03;4.80;;;;;;;5.96;100.00;97888.03;4998099;28;20256;-70
2023/12/15 08:01:16;;;;;;;15.90;6.13;;;;;;;6.09;100.00;97889.69;4995695;28;20234;-70
2023/12/15 08:03:42;;;;;;;9.90;4.30;;;;;;;6.10;100.00;97888.75;4995714;28;20209;-70
2023/12/15 08:06:11;;;;;;;10.43;3.90;;;;;;;6.19;100.00;97886.28;4996583;28;20613;-70
2023/12/15 08:08:38;;;;;;;9.93;4.33;;;;;;;6.07;100.00;97887.19;4997003;28;20210;-70
2023/12/15 08:11:05;;;;;;;11.23;4.47;;;;;;;6.03;100.00;97892.72;4995768;28;20712;-70
2023/12/15 08:13:32;;;;;;;11.53;4.30;;;;;;;6.05;100.00;97888.25;4998998;28;20237;-70
2023/12/15 08:15:58;;;;;;;11.93;4.97;;;;;;;5.88;100.00;97888.63;4996444;28;20257;-70
2023/12/15 08:18:25;;;;;;;15.33;5.03;;;;;;;5.84;100.00;97900.25;4996715;28;20210;-70
2023/12/15 08:20:51;;;;;;;11.97;4.67;;;;;;;5.92;100.00;97891.81;5003260;28;20474;-70
2023/12/15 08:23:19;;;;;;;15.20;5.53;;;;;;;6.05;100.00;97896.09;4996725;28;20853;-70
2023/12/15 08:25:46;;;;;;;13.57;5.30;;;;;;;6.03;100.00;97891.91;4996804;28;20208;-70
2023/12/15 08:28:12;;;;;;;19.27;5.10;;;;;;;6.04;100.00;97892.63;4995849;28;20217;-70
2023/12/15 08:30:39;;;;;;;18.97;6.70;;;;;;;6.18;100.00;97896.88;4996356;28;20751;-70
2023/12/15 08:33:05;;;;;;;15.50;5.17;;;;;;;6.04;100.00;97895.22;4996489;28;20223;-70
2023/12/15 08:35:32;;;;;;;11.73;3.97;;;;;;;6.08;100.00;97903.72;4996658;28;20217;-70
2023/12/15 08:37:58;;;;;;;7.07;3.40;;;;;;;5.95;100.00;97909.94;4997840;28;20206;-70
2023/12/15 08:40:26;;;;;;;6.27;3.07;;;;;;;5.84;100.00;97915.06;4996674;28;20217;-70
2023/12/15 08:42:53;;;;;;;6.73;3.57;;;;;;;5.87;100.00;97917.47;4996823;28;20454;-70
2023/12/15 08:45:20;;;;;;;7.43;3.37;;;;;;;5.70;100.00;97918.66;4996892;28;20280;-70
2023/12/15 08:47:46;;;;;;;8.93;3.40;;;;;;;5.72;100.00;97913.31;4998694;28;20205;-70
2023/12/15 08:50:13;;;;;;;8.07;3.50;;;;;;;5.74;100.00;97919.25;4996111;28;20504;-70
2023/12/15 08:52:40;;;;;;;7.07;3.07;;;;;;;5.96;100.00;97922.91;4997309;28;20326;-70
2023/12/15 08:55:08;;;;;;;5.00;2.77;;;;;;;6.12;100.00;97918.25;5004827;28;20206;-70
2023/12/15 08:57:36;;;;;;;5.07;2.77;;;;;;;5.85;100.00;97922.00;4996940;28;20659;-70
2023/12/15 09:00:04;;;;;;;5.50;3.57;;;;;;;6.03;100.00;97931.16;4996902;28;20251;-69
2023/12/15 09:02:31;;;;;;;6.17;2.83;;;;;;;6.00;100.00;97924.34;5000431;28;20317;-70
2023/12/15 09:04:58;;;;;;;6.13;2.90;;;;;;;6.06;100.00;97930.00;4997082;28;20199;-70
2023/12/15 09:07:24;;;;;;;6.20;3.03;;;;;;;6.00;100.00;97928.78;4996390;28;20747;-70
2023/12/15 09:09:51;;;;;;;8.63;3.80;;;;;;;6.05;100.00;97933.53;4996707;28;20202;-70
2023/12/15 09:12:17;;;;;;;10.33;3.47;;;;;;;6.17;100.00;97935.31;4996171;28;20261;-70
2023/12/15 09:14:46;;;;;;;5.37;2.73;;;;;;;6.23;100.00;97937.47;4995873;28;20230;-70
2023/12/15 09:17:13;;;;;;;8.03;3.10;;;;;;;6.40;100.00;97931.88;4996985;28;20210;-70
2023/12/15 09:19:40;;;;;;;6.20;3.13;;;;;;;6.50;100.00;97937.28;4996999;28;20210;-70
2023/12/15 09:22:07;;;;;;;5.07;2.60;;;;;;;6.36;100.00;97938.25;4997144;28;20226;-70
2023/12/15 09:24:34;;;;;;;6.40;3.17;;;;;;;6.49;100.00;97941.69;4997622;28;20213;-70
2023/12/15 09:27:01;;;;;;;7.13;2.77;;;;;;;6.35;100.00;97935.75;4997425;28;20735;-70
2023/12/15 09:29:28;;;;;;;6.47;2.97;;;;;;;6.41;100.00;97933.53;5004297;28;20206;-70
2023/12/15 09:31:56;;;;;;;6.10;2.70;;;;;;;6.62;100.00;97937.22;4998054;28;20679;-70
2023/12/15 09:34:23;;;;;;;5.43;2.80;;;;;;;6.65;100.00;97935.19;4997197;28;20233;-71
2023/12/15 09:36:50;;;;;;;8.53;3.33;;;;;;;6.58;100.00;97929.69;4996849;28;20206;-70
2023/12/15 09:39:16;;;;;;;6.53;3.27;;;;;;;6.62;100.00;97937.22;4995041;28;20222;-70
2023/12/15 09:41:43;;;;;;;8.63;3.80;;;;;;;6.82;100.00;97941.81;4995872;28;20229;-70
2023/12/15 09:44:10;;;;;;;10.03;4.27;;;;;;;6.65;100.00;97948.28;4996225;28;20205;-70
2023/12/15 09:46:36;;;;;;;6.67;2.70;;;;;;;6.65;100.00;97953.53;4996894;28;20203;-70
2023/12/15 09:49:05;;;;;;;6.70;3.20;;;;;;;6.72;100.00;97956.53;4997086;28;20214;-70
2023/12/15 09:51:33;;;;;;;4.43;2.07;;;;;;;6.78;100.00;97950.88;4996277;28;20229;-70
2023/12/15 09:54:00;;;;;;;8.67;3.37;;;;;;;6.35;100.00;97951.47;4996024;28;20256;-70
2023/12/15 09:56:27;;;;;;;7.07;2.73;;;;;;;6.66;100.00;97949.16;4995336;28;21034;-70
2023/12/15 09:58:53;;;;;;;12.17;3.47;;;;;;;6.46;100.00;97949.75;4996233;28;20202;-70
2023/12/15 10:01:20;;;;;;;5.53;3.10;;;;;;;6.69;100.00;97949.78;4995222;28;20721;-70
2023/12/15 10:03:47;;;;;;;6.30;3.20;;;;;;;6.80;100.00;97952.44;5005940;28;20198;-70
2023/12/15 10:06:15;;;;;;;10.27;4.00;;;;;;;6.93;100.00;97960.22;5000392;28;20206;-70
2023/12/15 10:08:43;;;;;;;8.03;3.87;;;;;;;6.95;100.00;97956.53;5001182;28;20202;-70
2023/12/15 10:11:10;;;;;;;4.97;3.13;;;;;;;6.55;100.00;97962.19;4999651;28;20227;-70
2023/12/15 10:13:40;;;;;;;5.50;3.23;;;;;;;6.88;100.00;97959.72;5000938;28;20227;-69
2023/12/15 10:16:08;;;;;;;5.10;2.93;;;;;;;6.78;100.00;97959.56;5007633;28;20203;-70
2023/12/15 10:18:34;;;;;;;7.73;3.60;;;;;;;6.67;100.00;97959.50;5000300;28;20677;-70
2023/12/15 10:21:01;;;;;;;7.90;3.87;;;;;;;6.74;100.00;97954.66;4999852;28;20226;-70
2023/12/15 10:23:30;;;;;;;7.60;3.17;;;;;;;7.08;100.00;97953.84;5000273;28;20209;-70
2023/12/15 10:25:59;;;;;;;4.40;2.80;;;;;;;6.86;100.00;97951.13;5000507;28;20241;-70
2023/12/15 10:28:25;;;;;;;6.27;3.60;;;;;;;6.82;100.00;97954.94;5000741;28;20202;-70
2023/12/15 10:30:52;;;;;;;6.13;2.97;;;;;;;6.82;100.00;97957.53;5003631;28;20226;-70
2023/12/15 10:33:19;;;;;;;7.63;3.27;;;;;;;6.75;100.00;97959.78;5011393;28;20205;-70
2023/12/15 10:35:47;;;;;;;8.60;3.37;;;;;;;6.95;100.00;97953.06;5015296;28;20202;-70
2023/12/15 10:38:14;;;;;;;6.87;3.43;;;;;;;6.91;100.00;97960.34;5017416;28;20226;-70
2023/12/15 10:40:42;;;;;;;6.83;3.87;;;;;;;7.22;100.00;97959.72;5018025;28;20229;-70
2023/12/15 10:43:10;;;;;;;5.67;2.57;;;;;;;6.68;100.00;97962.94;5018320;28;20881;-70
2023/12/15 10:45:38;;;;;;;9.03;4.03;;;;;;;6.68;100.00;97963.81;5017921;28;20201;-70
2023/12/15 10:48:05;;;;;;;8.47;4.87;;;;;;;6.84;100.00;97968.75;5017521;28;20198;-69
2023/12/15 10:50:31;;;;;;;6.03;3.40;;;;;;;6.87;100.00;97974.63;5017099;28;20222;-70
2023/12/15 10:52:58;;;;;;;6.07;2.90;;;;;;;6.95;100.00;97971.41;5017462;28;20295;-70
2023/12/15 10:55:25;;;;;;;6.70;3.23;;;;;;;6.83;100.00;97972.31;5013400;28;20984;-70
2023/12/15 10:57:53;;;;;;;7.43;3.20;;;;;;;7.05;100.00;97980.28;5013479;28;20206;-70
2023/12/15 11:00:20;;;;;;;8.73;3.90;;;;;;;6.94;100.00;97980.25;5005058;28;20237;-70
2023/12/15 11:02:48;;;;;;;7.37;3.83;;;;;;;7.21;100.00;97981.66;4999807;28;20198;-69
2023/12/15 11:05:15;;;;;;;6.57;3.43;;;;;;;7.26;100.00;97988.22;4999668;28;20206;-70
2023/12/15 11:07:42;;;;;;;11.30;4.27;;;;;;;7.04;100.00;97989.06;4999340;28;20198;-70
2023/12/15 11:10:12;;;;;;;10.00;4.27;;;;;;;7.01;100.00;97982.28;4998462;28;20696;-70
2023/12/15 11:12:40;;;;;;;9.07;3.90;;;;;;;7.12;100.00;97989.38;4999282;28;20213;-70
2023/12/15 11:15:09;;;;;;;5.37;3.23;;;;;;;6.90;100.00;97984.88;4998570;28;20229;-70
2023/12/15 11:17:39;;;;;;;8.00;3.80;;;;;;;7.31;100.00;97986.09;4999028;28;20210;-70
2023/12/15 11:20:09;;;;;;;7.57;4.20;;;;;;;7.39;100.00;97978.47;4999128;28;20207;-70
2023/12/15 11:22:48;;;;;;;8.53;4.17;;;;;;;7.49;100.00;97978.63;4998637;28;20206;-69
2023/12/15 11:25:19;;;;;;;5.83;3.23;;;;;;;7.34;100.00;97980.63;4999368;28;20677;-70
2023/12/15 11:28:08;;;;;;;7.63;3.97;;;;;;;7.76;100.00;97981.78;5000165;28;20257;-70